Dunhuang, China
Current Conditions -  °F | °C
As of 12:30 AM on Friday 31 Oct 2014 (Local Time) from ZWWW Reporting Station
Broken Clouds Broken Clouds  
Wind Chill: 34°   Ceiling: 4600
Heat Index: 37°   Visibility: 6mi
Dew Point: 23°   Wind: 4mph
Humidity: 56%   Direction: 180°S
Pressure: 30.5"   Gusts: NA
Location:  40.15°N, 94.68°E
Report Text: ZWWW 301630Z 18002MPS 160V220 9999 BKN046 03/M05 Q1033 NOSIG
Loading
Personal Weather Stations






























Interactive Weather Map
Tropical Storm Tracking
New forecast layout! Learn more

10-Day Weather Forecast

Advertisements
Track Severe Weather on mobile